sensor_id;sensor_type;location;lat;lon;timestamp;pressure;altitude;pressure_sealevel;temperature;humidity
51807;BME280;37865;51.304;9.536;2023-11-21T00:02:18;99350.47;;;6.08;100.00
51807;BME280;37865;51.304;9.536;2023-11-21T00:04:43;99350.09;;;6.16;100.00
51807;BME280;37865;51.304;9.536;2023-11-21T00:07:08;99351.59;;;6.23;100.00
51807;BME280;37865;51.304;9.536;2023-11-21T00:09:33;99349.84;;;6.29;100.00
51807;BME280;37865;51.304;9.536;2023-11-21T00:12:00;99345.38;;;6.34;100.00
51807;BME280;37865;51.304;9.536;2023-11-21T00:14:25;99351.72;;;6.40;100.00
51807;BME280;37865;51.304;9.536;2023-11-21T00:16:50;99359.72;;;6.46;100.00
51807;BME280;37865;51.304;9.536;2023-11-21T00:19:15;99355.47;;;6.50;100.00
51807;BME280;37865;51.304;9.536;2023-11-21T00:21:41;99354.28;;;6.58;100.00
51807;BME280;37865;51.304;9.536;2023-11-21T00:24:09;99357.09;;;6.63;100.00
51807;BME280;37865;51.304;9.536;2023-11-21T00:26:34;99354.25;;;6.70;100.00
51807;BME280;37865;51.304;9.536;2023-11-21T00:29:01;99368.94;;;6.74;100.00
51807;BME280;37865;51.304;9.536;2023-11-21T00:31:27;99363.28;;;6.75;100.00
51807;BME280;37865;51.304;9.536;2023-11-21T00:33:52;99367.19;;;6.79;100.00
51807;BME280;37865;51.304;9.536;2023-11-21T00:36:17;99363.16;;;6.82;100.00
51807;BME280;37865;51.304;9.536;2023-11-21T00:38:43;99362.25;;;6.76;100.00
51807;BME280;37865;51.304;9.536;2023-11-21T00:41:08;99359.56;;;6.65;100.00
51807;BME280;37865;51.304;9.536;2023-11-21T00:43:33;99361.25;;;6.54;100.00
51807;BME280;37865;51.304;9.536;2023-11-21T00:45:58;99370.31;;;6.48;100.00
51807;BME280;37865;51.304;9.536;2023-11-21T00:48:24;99368.69;;;6.35;100.00
51807;BME280;37865;51.304;9.536;2023-11-21T00:50:49;99370.34;;;6.25;100.00
51807;BME280;37865;51.304;9.536;2023-11-21T00:53:15;99372.25;;;6.13;100.00
51807;BME280;37865;51.304;9.536;2023-11-21T00:55:40;99364.34;;;6.00;100.00
51807;BME280;37865;51.304;9.536;2023-11-21T00:58:05;99367.63;;;5.90;100.00
51807;BME280;37865;51.304;9.536;2023-11-21T01:00:32;99367.13;;;5.82;100.00
51807;BME280;37865;51.304;9.536;2023-11-21T01:02:57;99368.03;;;5.76;100.00
51807;BME280;37865;51.304;9.536;2023-11-21T01:05:23;99388.88;;;5.75;100.00
51807;BME280;37865;51.304;9.536;2023-11-21T01:07:48;99383.09;;;5.71;100.00
51807;BME280;37865;51.304;9.536;2023-11-21T01:10:13;99385.69;;;5.66;100.00
51807;BME280;37865;51.304;9.536;2023-11-21T01:12:39;99381.81;;;5.62;100.00
51807;BME280;37865;51.304;9.536;2023-11-21T01:15:05;99379.78;;;5.58;100.00
51807;BME280;37865;51.304;9.536;2023-11-21T01:17:32;99388.25;;;5.61;100.00
51807;BME280;37865;51.304;9.536;2023-11-21T01:19:59;99395.69;;;5.66;100.00
51807;BME280;37865;51.304;9.536;2023-11-21T01:22:25;99387.69;;;5.71;100.00
51807;BME280;37865;51.304;9.536;2023-11-21T01:24:51;99393.22;;;5.76;100.00
51807;BME280;37865;51.304;9.536;2023-11-21T01:27:16;99408.34;;;5.84;100.00
51807;BME280;37865;51.304;9.536;2023-11-21T01:29:42;99404.69;;;5.90;100.00
51807;BME280;37865;51.304;9.536;2023-11-21T01:32:07;99402.94;;;5.95;100.00
51807;BME280;37865;51.304;9.536;2023-11-21T01:34:33;99401.16;;;6.01;100.00
51807;BME280;37865;51.304;9.536;2023-11-21T01:36:58;99399.88;;;6.03;100.00
51807;BME280;37865;51.304;9.536;2023-11-21T01:39:23;99399.41;;;6.06;100.00
51807;BME280;37865;51.304;9.536;2023-11-21T01:41:49;99402.13;;;6.06;100.00
51807;BME280;37865;51.304;9.536;2023-11-21T01:44:14;99397.50;;;6.07;100.00
51807;BME280;37865;51.304;9.536;2023-11-21T01:46:40;99398.00;;;6.04;100.00
51807;BME280;37865;51.304;9.536;2023-11-21T01:49:06;99396.91;;;6.05;100.00
51807;BME280;37865;51.304;9.536;2023-11-21T01:51:32;99402.47;;;6.10;100.00
51807;BME280;37865;51.304;9.536;2023-11-21T01:53:58;99406.09;;;6.15;100.00
51807;BME280;37865;51.304;9.536;2023-11-21T01:56:24;99409.78;;;6.21;100.00
51807;BME280;37865;51.304;9.536;2023-11-21T01:58:51;99408.00;;;6.26;100.00
51807;BME280;37865;51.304;9.536;2023-11-21T02:01:16;99411.63;;;6.32;100.00
51807;BME280;37865;51.304;9.536;2023-11-21T02:03:43;99404.47;;;6.37;100.00
51807;BME280;37865;51.304;9.536;2023-11-21T02:06:08;99420.59;;;6.44;100.00
51807;BME280;37865;51.304;9.536;2023-11-21T02:08:33;99419.88;;;6.48;100.00
51807;BME280;37865;51.304;9.536;2023-11-21T02:10:59;99434.59;;;6.53;100.00
51807;BME280;37865;51.304;9.536;2023-11-21T02:13:24;99439.31;;;6.57;100.00
51807;BME280;37865;51.304;9.536;2023-11-21T02:15:49;99436.72;;;6.62;100.00
51807;BME280;37865;51.304;9.536;2023-11-21T02:18:17;99430.59;;;6.67;100.00
51807;BME280;37865;51.304;9.536;2023-11-21T02:20:42;99434.22;;;6.72;100.00
51807;BME280;37865;51.304;9.536;2023-11-21T02:23:08;99442.69;;;6.76;100.00
51807;BME280;37865;51.304;9.536;2023-11-21T02:25:33;99442.22;;;6.79;100.00
51807;BME280;37865;51.304;9.536;2023-11-21T02:27:59;99437.97;;;6.83;100.00
51807;BME280;37865;51.304;9.536;2023-11-21T02:30:24;99435.59;;;6.86;100.00
51807;BME280;37865;51.304;9.536;2023-11-21T02:32:50;99441.38;;;6.90;100.00
51807;BME280;37865;51.304;9.536;2023-11-21T02:35:17;99436.53;;;6.92;100.00
51807;BME280;37865;51.304;9.536;2023-11-21T02:37:43;99441.47;;;6.95;100.00
51807;BME280;37865;51.304;9.536;2023-11-21T02:40:09;99431.81;;;6.99;100.00
51807;BME280;37865;51.304;9.536;2023-11-21T02:42:34;99429.94;;;6.99;100.00
51807;BME280;37865;51.304;9.536;2023-11-21T02:45:00;99433.22;;;7.01;100.00
51807;BME280;37865;51.304;9.536;2023-11-21T02:47:25;99433.81;;;7.03;100.00
51807;BME280;37865;51.304;9.536;2023-11-21T02:49:50;99431.44;;;7.07;100.00
51807;BME280;37865;51.304;9.536;2023-11-21T02:52:17;99437.22;;;7.10;100.00
51807;BME280;37865;51.304;9.536;2023-11-21T02:54:42;99424.72;;;7.09;100.00
51807;BME280;37865;51.304;9.536;2023-11-21T02:57:07;99430.13;;;7.09;100.00
51807;BME280;37865;51.304;9.536;2023-11-21T02:59:33;99432.84;;;7.09;100.00
51807;BME280;37865;51.304;9.536;2023-11-21T03:01:58;99442.84;;;7.09;100.00
51807;BME280;37865;51.304;9.536;2023-11-21T03:04:24;99439.09;;;7.10;100.00
51807;BME280;37865;51.304;9.536;2023-11-21T03:06:49;99449.44;;;7.13;100.00
51807;BME280;37865;51.304;9.536;2023-11-21T03:09:14;99452.97;;;7.13;100.00
51807;BME280;37865;51.304;9.536;2023-11-21T03:11:39;99452.72;;;7.15;100.00
51807;BME280;37865;51.304;9.536;2023-11-21T03:14:04;99458.75;;;7.17;100.00
51807;BME280;37865;51.304;9.536;2023-11-21T03:16:31;99449.31;;;7.19;100.00
51807;BME280;37865;51.304;9.536;2023-11-21T03:18:56;99453.91;;;7.19;100.00
51807;BME280;37865;51.304;9.536;2023-11-21T03:21:21;99454.41;;;7.16;100.00
51807;BME280;37865;51.304;9.536;2023-11-21T03:23:47;99452.97;;;7.13;100.00
51807;BME280;37865;51.304;9.536;2023-11-21T03:26:12;99450.84;;;7.15;100.00
51807;BME280;37865;51.304;9.536;2023-11-21T03:28:38;99456.41;;;7.09;100.00
51807;BME280;37865;51.304;9.536;2023-11-21T03:31:03;99452.56;;;6.93;100.00
51807;BME280;37865;51.304;9.536;2023-11-21T03:33:28;99448.69;;;6.78;100.00
51807;BME280;37865;51.304;9.536;2023-11-21T03:35:53;99456.25;;;6.64;100.00
51807;BME280;37865;51.304;9.536;2023-11-21T03:38:18;99460.03;;;6.52;100.00
51807;BME280;37865;51.304;9.536;2023-11-21T03:40:44;99464.63;;;6.39;100.00
51807;BME280;37865;51.304;9.536;2023-11-21T03:43:09;99463.78;;;6.27;100.00
51807;BME280;37865;51.304;9.536;2023-11-21T03:45:34;99467.66;;;6.20;100.00
51807;BME280;37865;51.304;9.536;2023-11-21T03:48:00;99471.56;;;6.12;100.00
51807;BME280;37865;51.304;9.536;2023-11-21T03:50:27;99464.81;;;6.03;100.00
51807;BME280;37865;51.304;9.536;2023-11-21T03:52:52;99470.00;;;5.93;100.00
51807;BME280;37865;51.304;9.536;2023-11-21T03:55:17;99463.69;;;5.81;100.00
51807;BME280;37865;51.304;9.536;2023-11-21T03:57:42;99476.13;;;5.70;100.00
51807;BME280;37865;51.304;9.536;2023-11-21T04:00:08;99478.56;;;5.60;100.00
51807;BME280;37865;51.304;9.536;2023-11-21T04:02:34;99476.19;;;5.52;100.00
51807;BME280;37865;51.304;9.536;2023-11-21T04:04:59;99474.03;;;5.43;100.00
51807;BME280;37865;51.304;9.536;2023-11-21T04:07:24;99478.72;;;5.36;100.00
51807;BME280;37865;51.304;9.536;2023-11-21T04:09:49;99475.34;;;5.22;100.00
51807;BME280;37865;51.304;9.536;2023-11-21T04:12:14;99477.16;;;5.10;100.00
51807;BME280;37865;51.304;9.536;2023-11-21T04:14:40;99479.78;;;4.99;100.00
51807;BME280;37865;51.304;9.536;2023-11-21T04:17:05;99486.69;;;4.95;100.00
51807;BME280;37865;51.304;9.536;2023-11-21T04:19:30;99480.31;;;4.89;100.00
51807;BME280;37865;51.304;9.536;2023-11-21T04:21:55;99490.69;;;4.92;100.00
51807;BME280;37865;51.304;9.536;2023-11-21T04:24:21;99488.78;;;4.93;100.00
51807;BME280;37865;51.304;9.536;2023-11-21T04:26:46;99492.38;;;4.86;100.00
51807;BME280;37865;51.304;9.536;2023-11-21T04:29:11;99491.00;;;4.84;100.00
51807;BME280;37865;51.304;9.536;2023-11-21T04:31:37;99492.91;;;4.77;100.00
51807;BME280;37865;51.304;9.536;2023-11-21T04:34:02;99497.19;;;4.66;100.00
51807;BME280;37865;51.304;9.536;2023-11-21T04:36:30;99505.34;;;4.60;100.00
51807;BME280;37865;51.304;9.536;2023-11-21T04:38:59;99512.25;;;4.56;100.00
51807;BME280;37865;51.304;9.536;2023-11-21T04:41:25;99510.81;;;4.53;100.00
51807;BME280;37865;51.304;9.536;2023-11-21T04:43:50;99520.81;;;4.53;100.00
51807;BME280;37865;51.304;9.536;2023-11-21T04:46:15;99526.81;;;4.55;100.00
51807;BME280;37865;51.304;9.536;2023-11-21T04:48:40;99531.31;;;4.61;100.00
51807;BME280;37865;51.304;9.536;2023-11-21T04:51:06;99533.72;;;4.69;100.00
51807;BME280;37865;51.304;9.536;2023-11-21T04:53:31;99537.78;;;4.78;100.00
51807;BME280;37865;51.304;9.536;2023-11-21T04:55:57;99544.31;;;4.88;100.00
51807;BME280;37865;51.304;9.536;2023-11-21T04:58:22;99542.97;;;4.98;100.00
51807;BME280;37865;51.304;9.536;2023-11-21T05:00:47;99544.34;;;5.07;100.00
51807;BME280;37865;51.304;9.536;2023-11-21T05:03:12;99557.94;;;5.18;100.00
51807;BME280;37865;51.304;9.536;2023-11-21T05:05:37;99555.50;;;5.28;100.00
51807;BME280;37865;51.304;9.536;2023-11-21T05:08:03;99560.63;;;5.36;100.00
51807;BME280;37865;51.304;9.536;2023-11-21T05:10:29;99566.53;;;5.45;100.00
51807;BME280;37865;51.304;9.536;2023-11-21T05:12:55;99564.38;;;5.53;100.00
51807;BME280;37865;51.304;9.536;2023-11-21T05:15:20;99567.59;;;5.62;100.00
51807;BME280;37865;51.304;9.536;2023-11-21T05:17:46;99561.84;;;5.70;100.00
51807;BME280;37865;51.304;9.536;2023-11-21T05:20:13;99577.16;;;5.76;100.00
51807;BME280;37865;51.304;9.536;2023-11-21T05:22:42;99566.28;;;5.83;100.00
51807;BME280;37865;51.304;9.536;2023-11-21T05:25:07;99565.97;;;5.91;100.00
51807;BME280;37865;51.304;9.536;2023-11-21T05:27:33;99574.84;;;5.98;100.00
51807;BME280;37865;51.304;9.536;2023-11-21T05:29:59;99577.91;;;6.01;100.00
51807;BME280;37865;51.304;9.536;2023-11-21T05:32:24;99581.78;;;6.05;100.00
51807;BME280;37865;51.304;9.536;2023-11-21T05:34:50;99579.25;;;6.10;100.00
51807;BME280;37865;51.304;9.536;2023-11-21T05:37:15;99586.66;;;6.15;100.00
51807;BME280;37865;51.304;9.536;2023-11-21T05:39:40;99585.38;;;6.17;100.00
51807;BME280;37865;51.304;9.536;2023-11-21T05:42:05;99590.31;;;6.20;100.00
51807;BME280;37865;51.304;9.536;2023-11-21T05:44:31;99591.97;;;6.21;100.00
51807;BME280;37865;51.304;9.536;2023-11-21T05:46:56;99597.97;;;6.23;100.00
51807;BME280;37865;51.304;9.536;2023-11-21T05:49:23;99598.56;;;6.25;100.00
51807;BME280;37865;51.304;9.536;2023-11-21T05:51:51;99592.78;;;6.22;100.00
51807;BME280;37865;51.304;9.536;2023-11-21T05:54:18;99588.66;;;6.19;100.00
51807;BME280;37865;51.304;9.536;2023-11-21T05:56:44;99589.72;;;6.18;100.00
51807;BME280;37865;51.304;9.536;2023-11-21T05:59:09;99597.84;;;6.18;100.00
51807;BME280;37865;51.304;9.536;2023-11-21T06:01:35;99595.97;;;6.19;100.00
51807;BME280;37865;51.304;9.536;2023-11-21T06:04:03;99596.56;;;6.21;100.00
51807;BME280;37865;51.304;9.536;2023-11-21T06:06:29;99603.63;;;6.22;100.00
51807;BME280;37865;51.304;9.536;2023-11-21T06:08:54;99601.66;;;6.29;100.00
51807;BME280;37865;51.304;9.536;2023-11-21T06:11:19;99610.63;;;6.29;100.00
51807;BME280;37865;51.304;9.536;2023-11-21T06:13:44;99606.84;;;6.30;100.00
51807;BME280;37865;51.304;9.536;2023-11-21T06:16:10;99616.38;;;6.33;100.00
51807;BME280;37865;51.304;9.536;2023-11-21T06:18:35;99618.84;;;6.34;100.00
51807;BME280;37865;51.304;9.536;2023-11-21T06:21:00;99627.13;;;6.39;100.00
51807;BME280;37865;51.304;9.536;2023-11-21T06:23:25;99622.88;;;6.43;100.00
51807;BME280;37865;51.304;9.536;2023-11-21T06:25:51;99628.66;;;6.47;100.00
51807;BME280;37865;51.304;9.536;2023-11-21T06:28:16;99638.22;;;6.49;100.00
51807;BME280;37865;51.304;9.536;2023-11-21T06:30:42;99641.28;;;6.53;100.00
51807;BME280;37865;51.304;9.536;2023-11-21T06:33:09;99636.22;;;6.57;100.00
51807;BME280;37865;51.304;9.536;2023-11-21T06:35:34;99637.44;;;6.61;100.00
51807;BME280;37865;51.304;9.536;2023-11-21T06:38:00;99632.59;;;6.63;100.00
51807;BME280;37865;51.304;9.536;2023-11-21T06:40:25;99632.94;;;6.66;100.00
51807;BME280;37865;51.304;9.536;2023-11-21T06:42:50;99646.25;;;6.68;100.00
51807;BME280;37865;51.304;9.536;2023-11-21T06:45:15;99649.31;;;6.71;100.00
51807;BME280;37865;51.304;9.536;2023-11-21T06:47:41;99650.50;;;6.75;100.00
51807;BME280;37865;51.304;9.536;2023-11-21T06:50:06;99649.81;;;6.80;100.00
51807;BME280;37865;51.304;9.536;2023-11-21T06:52:32;99655.38;;;6.85;100.00
51807;BME280;37865;51.304;9.536;2023-11-21T06:54:57;99653.84;;;6.89;100.00
51807;BME280;37865;51.304;9.536;2023-11-21T06:57:23;99656.53;;;6.89;100.00
51807;BME280;37865;51.304;9.536;2023-11-21T06:59:48;99659.84;;;6.91;100.00
51807;BME280;37865;51.304;9.536;2023-11-21T07:02:13;99661.28;;;6.93;100.00
51807;BME280;37865;51.304;9.536;2023-11-21T07:04:39;99664.81;;;6.94;100.00
51807;BME280;37865;51.304;9.536;2023-11-21T07:07:04;99665.63;;;6.94;100.00
51807;BME280;37865;51.304;9.536;2023-11-21T07:09:31;99666.22;;;6.96;100.00
51807;BME280;37865;51.304;9.536;2023-11-21T07:11:57;99667.28;;;6.95;100.00
51807;BME280;37865;51.304;9.536;2023-11-21T07:14:22;99678.72;;;6.97;100.00
51807;BME280;37865;51.304;9.536;2023-11-21T07:16:47;99678.72;;;6.97;100.00
51807;BME280;37865;51.304;9.536;2023-11-21T07:19:13;99680.94;;;7.00;100.00
51807;BME280;37865;51.304;9.536;2023-11-21T07:21:38;99686.50;;;7.05;100.00
51807;BME280;37865;51.304;9.536;2023-11-21T07:24:07;99689.34;;;7.10;100.00
51807;BME280;37865;51.304;9.536;2023-11-21T07:26:32;99698.88;;;7.13;100.00
51807;BME280;37865;51.304;9.536;2023-11-21T07:28:58;99702.41;;;7.13;100.00
51807;BME280;37865;51.304;9.536;2023-11-21T07:31:23;99697.13;;;7.18;100.00
51807;BME280;37865;51.304;9.536;2023-11-21T07:33:49;99703.75;;;7.22;100.00
51807;BME280;37865;51.304;9.536;2023-11-21T07:36:15;99710.94;;;7.28;100.00
51807;BME280;37865;51.304;9.536;2023-11-21T07:38:41;99702.78;;;7.40;100.00
51807;BME280;37865;51.304;9.536;2023-11-21T07:41:07;99710.81;;;7.47;100.00
51807;BME280;37865;51.304;9.536;2023-11-21T07:43:35;99717.75;;;7.54;100.00
51807;BME280;37865;51.304;9.536;2023-11-21T07:46:03;99710.94;;;7.63;100.00
51807;BME280;37865;51.304;9.536;2023-11-21T07:48:32;99718.94;;;7.70;100.00
51807;BME280;37865;51.304;9.536;2023-11-21T07:50:57;99715.41;;;7.81;100.00
51807;BME280;37865;51.304;9.536;2023-11-21T07:53:23;99716.91;;;7.88;100.00
51807;BME280;37865;51.304;9.536;2023-11-21T07:55:50;99718.44;;;7.96;100.00
51807;BME280;37865;51.304;9.536;2023-11-21T07:58:15;99724.44;;;7.98;100.00
51807;BME280;37865;51.304;9.536;2023-11-21T08:00:40;99724.22;;;7.99;100.00
51807;BME280;37865;51.304;9.536;2023-11-21T08:03:05;99725.88;;;8.00;100.00
51807;BME280;37865;51.304;9.536;2023-11-21T08:05:31;99734.47;;;8.09;100.00
51807;BME280;37865;51.304;9.536;2023-11-21T08:07:56;99731.97;;;8.19;100.00
51807;BME280;37865;51.304;9.536;2023-11-21T08:10:21;99737.50;;;8.24;100.00
51807;BME280;37865;51.304;9.536;2023-11-21T08:12:47;99745.56;;;8.31;100.00
51807;BME280;37865;51.304;9.536;2023-11-21T08:15:13;99742.94;;;8.36;100.00
51807;BME280;37865;51.304;9.536;2023-11-21T08:17:38;99745.50;;;8.42;100.00
51807;BME280;37865;51.304;9.536;2023-11-21T08:20:04;99746.19;;;8.49;100.00
51807;BME280;37865;51.304;9.536;2023-11-21T08:22:29;99759.06;;;8.54;100.00
51807;BME280;37865;51.304;9.536;2023-11-21T08:24:55;99756.94;;;8.56;100.00
51807;BME280;37865;51.304;9.536;2023-11-21T08:27:21;99760.72;;;8.55;100.00
51807;BME280;37865;51.304;9.536;2023-11-21T08:29:46;99764.72;;;8.52;100.00
51807;BME280;37865;51.304;9.536;2023-11-21T08:32:12;99761.44;;;8.50;100.00
51807;BME280;37865;51.304;9.536;2023-11-21T08:34:37;99775.84;;;8.51;100.00
51807;BME280;37865;51.304;9.536;2023-11-21T08:37:04;99761.19;;;8.52;100.00
51807;BME280;37865;51.304;9.536;2023-11-21T08:39:30;99765.66;;;8.58;100.00
51807;BME280;37865;51.304;9.536;2023-11-21T08:41:56;99762.72;;;8.59;100.00
51807;BME280;37865;51.304;9.536;2023-11-21T08:44:21;99765.66;;;8.58;100.00
51807;BME280;37865;51.304;9.536;2023-11-21T08:46:48;99765.41;;;8.59;100.00
51807;BME280;37865;51.304;9.536;2023-11-21T08:49:14;99762.72;;;8.59;100.00
51807;BME280;37865;51.304;9.536;2023-11-21T08:51:40;99771.69;;;8.60;100.00
51807;BME280;37865;51.304;9.536;2023-11-21T08:54:05;99770.28;;;8.57;100.00
51807;BME280;37865;51.304;9.536;2023-11-21T08:56:33;99777.34;;;8.58;100.00
51807;BME280;37865;51.304;9.536;2023-11-21T08:58:58;99774.63;;;8.58;100.00
51807;BME280;37865;51.304;9.536;2023-11-21T09:01:25;99767.31;;;8.59;100.00
51807;BME280;37865;51.304;9.536;2023-11-21T09:03:51;99772.75;;;8.59;100.00
51807;BME280;37865;51.304;9.536;2023-11-21T09:06:16;99777.22;;;8.65;100.00
51807;BME280;37865;51.304;9.536;2023-11-21T09:08:41;99781.81;;;8.64;100.00
51807;BME280;37865;51.304;9.536;2023-11-21T09:11:07;99776.38;;;8.64;100.00
51807;BME280;37865;51.304;9.536;2023-11-21T09:13:33;99784.06;;;8.67;100.00
51807;BME280;37865;51.304;9.536;2023-11-21T09:15:58;99788.19;;;8.70;100.00
51807;BME280;37865;51.304;9.536;2023-11-21T09:18:23;99789.03;;;8.70;100.00
51807;BME280;37865;51.304;9.536;2023-11-21T09:20:48;99792.31;;;8.72;100.00
51807;BME280;37865;51.304;9.536;2023-11-21T09:23:14;99800.81;;;8.76;100.00
51807;BME280;37865;51.304;9.536;2023-11-21T09:25:39;99803.03;;;8.79;100.00
51807;BME280;37865;51.304;9.536;2023-11-21T09:28:05;99801.47;;;8.83;100.00
51807;BME280;37865;51.304;9.536;2023-11-21T09:30:33;99802.91;;;8.85;100.00
51807;BME280;37865;51.304;9.536;2023-11-21T09:32:58;99811.63;;;8.87;100.00
51807;BME280;37865;51.304;9.536;2023-11-21T09:35:23;99804.19;;;8.83;100.00
51807;BME280;37865;51.304;9.536;2023-11-21T09:37:49;99809.31;;;8.79;100.00
51807;BME280;37865;51.304;9.536;2023-11-21T09:40:15;99803.28;;;8.77;100.00
51807;BME280;37865;51.304;9.536;2023-11-21T09:43:04;99802.63;;;8.70;100.00
51807;BME280;37865;51.304;9.536;2023-11-21T09:45:34;99813.38;;;8.65;100.00
51807;BME280;37865;51.304;9.536;2023-11-21T09:48:00;99809.09;;;8.69;100.00
51807;BME280;37865;51.304;9.536;2023-11-21T09:50:25;99807.44;;;8.68;100.00
51807;BME280;37865;51.304;9.536;2023-11-21T09:55:39;99820.81;;;8.70;100.00
51807;BME280;37865;51.304;9.536;2023-11-21T09:58:06;99809.69;;;8.71;100.00
51807;BME280;37865;51.304;9.536;2023-11-21T10:00:36;99811.09;;;8.74;100.00
51807;BME280;37865;51.304;9.536;2023-11-21T10:03:05;99817.38;;;8.74;100.00
51807;BME280;37865;51.304;9.536;2023-11-21T10:05:30;99827.28;;;8.80;100.00
51807;BME280;37865;51.304;9.536;2023-11-21T10:07:59;99822.50;;;8.87;100.00
51807;BME280;37865;51.304;9.536;2023-11-21T10:10:24;99829.69;;;8.93;100.00
51807;BME280;37865;51.304;9.536;2023-11-21T10:12:51;99827.09;;;8.99;100.00
51807;BME280;37865;51.304;9.536;2023-11-21T10:15:23;99835.09;;;9.05;100.00
51807;BME280;37865;51.304;9.536;2023-11-21T10:17:50;99828.81;;;9.05;100.00
51807;BME280;37865;51.304;9.536;2023-11-21T10:20:18;99833.78;;;9.08;100.00
51807;BME280;37865;51.304;9.536;2023-11-21T10:22:44;99837.91;;;9.10;100.00
51807;BME280;37865;51.304;9.536;2023-11-21T10:25:10;99834.44;;;9.15;100.00
51807;BME280;37865;51.304;9.536;2023-11-21T10:27:36;99839.91;;;9.15;100.00
51807;BME280;37865;51.304;9.536;2023-11-21T10:30:02;99836.84;;;9.11;100.00
51807;BME280;37865;51.304;9.536;2023-11-21T10:32:29;99840.28;;;9.07;100.00
51807;BME280;37865;51.304;9.536;2023-11-21T10:35:01;99846.22;;;9.04;100.00
51807;BME280;37865;51.304;9.536;2023-11-21T10:37:31;99847.88;;;9.05;100.00
51807;BME280;37865;51.304;9.536;2023-11-21T10:39:59;99849.28;;;9.07;100.00
51807;BME280;37865;51.304;9.536;2023-11-21T10:42:24;99842.75;;;9.08;100.00
51807;BME280;37865;51.304;9.536;2023-11-21T10:44:49;99844.41;;;9.09;100.00
51807;BME280;37865;51.304;9.536;2023-11-21T10:47:15;99846.91;;;9.11;100.00
51807;BME280;37865;51.304;9.536;2023-11-21T10:49:40;99849.59;;;9.11;100.00
51807;BME280;37865;51.304;9.536;2023-11-21T10:52:06;99854.59;;;9.14;100.00
51807;BME280;37865;51.304;9.536;2023-11-21T10:54:31;99853.59;;;9.20;100.00
51807;BME280;37865;51.304;9.536;2023-11-21T10:56:57;99850.97;;;9.25;100.00
51807;BME280;37865;51.304;9.536;2023-11-21T10:59:24;99850.47;;;9.28;100.00
51807;BME280;37865;51.304;9.536;2023-11-21T11:01:51;99848.59;;;9.28;100.00
51807;BME280;37865;51.304;9.536;2023-11-21T11:04:20;99849.41;;;9.29;100.00
51807;BME280;37865;51.304;9.536;2023-11-21T11:06:50;99860.38;;;9.34;100.00
51807;BME280;37865;51.304;9.536;2023-11-21T11:09:16;99861.53;;;9.38;100.00
51807;BME280;37865;51.304;9.536;2023-11-21T11:11:42;99850.66;;;9.38;100.00
51807;BME280;37865;51.304;9.536;2023-11-21T11:14:12;99850.41;;;9.39;100.00
51807;BME280;37865;51.304;9.536;2023-11-21T11:16:38;99853.72;;;9.41;100.00
51807;BME280;37865;51.304;9.536;2023-11-21T11:19:06;99851.81;;;9.42;100.00
51807;BME280;37865;51.304;9.536;2023-11-21T11:21:36;99865.09;;;9.38;100.00
51807;BME280;37865;51.304;9.536;2023-11-21T11:26:37;99854.69;;;9.35;100.00
51807;BME280;37865;51.304;9.536;2023-11-21T11:32:06;99862.38;;;9.38;100.00
51807;BME280;37865;51.304;9.536;2023-11-21T11:34:35;99865.56;;;9.35;100.00
51807;BME280;37865;51.304;9.536;2023-11-21T11:37:06;99861.44;;;9.33;100.00
51807;BME280;37865;51.304;9.536;2023-11-21T11:39:37;99866.88;;;9.33;100.00
51807;BME280;37865;51.304;9.536;2023-11-21T11:42:03;99864.78;;;9.35;100.00
51807;BME280;37865;51.304;9.536;2023-11-21T11:47:14;99868.22;;;9.30;100.00
51807;BME280;37865;51.304;9.536;2023-11-21T11:49:54;99871.53;;;9.32;100.00
51807;BME280;37865;51.304;9.536;2023-11-21T11:52:32;99877.56;;;9.34;100.00
51807;BME280;37865;51.304;9.536;2023-11-21T11:54:59;99877.56;;;9.34;100.00
51807;BME280;37865;51.304;9.536;2023-11-21T11:57:24;99871.84;;;9.36;100.00
51807;BME280;37865;51.304;9.536;2023-11-21T12:02:37;99881.69;;;9.37;100.00
51807;BME280;37865;51.304;9.536;2023-11-21T12:05:09;99877.19;;;9.31;100.00
51807;BME280;37865;51.304;9.536;2023-11-21T12:07:51;99880.66;;;9.26;100.00
51807;BME280;37865;51.304;9.536;2023-11-21T12:10:20;99876.03;;;9.27;100.00
51807;BME280;37865;51.304;9.536;2023-11-21T12:12:47;99885.84;;;9.28;100.00
51807;BME280;37865;51.304;9.536;2023-11-21T12:15:13;99882.03;;;9.29;100.00
51807;BME280;37865;51.304;9.536;2023-11-21T12:17:39;99882.03;;;9.29;100.00
51807;BME280;37865;51.304;9.536;2023-11-21T12:20:04;99879.69;;;9.32;100.00
51807;BME280;37865;51.304;9.536;2023-11-21T12:22:32;99888.66;;;9.33;100.00
51807;BME280;37865;51.304;9.536;2023-11-21T12:24:57;99884.41;;;9.37;100.00
51807;BME280;37865;51.304;9.536;2023-11-21T12:27:23;99885.78;;;9.39;100.00
51807;BME280;37865;51.304;9.536;2023-11-21T12:29:48;99889.91;;;9.42;100.00
51807;BME280;37865;51.304;9.536;2023-11-21T12:32:13;99891.09;;;9.46;100.00
51807;BME280;37865;51.304;9.536;2023-11-21T12:34:40;99889.53;;;9.50;100.00
51807;BME280;37865;51.304;9.536;2023-11-21T12:37:05;99897.53;;;9.56;100.00
51807;BME280;37865;51.304;9.536;2023-11-21T12:39:31;99897.78;;;9.55;100.00
51807;BME280;37865;51.304;9.536;2023-11-21T12:41:56;99901.16;;;9.62;100.00
51807;BME280;37865;51.304;9.536;2023-11-21T12:44:21;99902.41;;;9.54;100.00
51807;BME280;37865;51.304;9.536;2023-11-21T12:46:48;99906.94;;;9.49;100.00
51807;BME280;37865;51.304;9.536;2023-11-21T12:49:14;99913.59;;;9.41;100.00
51807;BME280;37865;51.304;9.536;2023-11-21T12:51:43;99911.84;;;9.35;100.00
51807;BME280;37865;51.304;9.536;2023-11-21T12:54:08;99916.38;;;9.30;100.00
51807;BME280;37865;51.304;9.536;2023-11-21T12:56:37;99922.06;;;9.28;100.00
51807;BME280;37865;51.304;9.536;2023-11-21T12:59:03;99919.81;;;9.25;100.00
51807;BME280;37865;51.304;9.536;2023-11-21T13:01:29;99928.56;;;9.27;100.00
51807;BME280;37865;51.304;9.536;2023-11-21T13:03:57;99937.44;;;9.23;100.00
51807;BME280;37865;51.304;9.536;2023-11-21T13:06:22;99935.22;;;9.20;100.00
51807;BME280;37865;51.304;9.536;2023-11-21T13:08:50;99936.78;;;9.16;100.00